Time;durP1;ratioP1;P1;durP2;ratioP2;P2;SDS_P1;SDS_P2;PMS_P1;PMS_P2;Temp;Humidity;BMP_temperature;BMP_pressure;BME280_temperature;BME280_humidity;BME280_pressure;Samples;Min_cycle;Max_cycle;Signal;HPM_P1;HPM_P2
2023/10/26 00:03:00;;;;;;;5.18;4.18;;;13.60;99.90;;;;;;10405600;28;20421;-66
2023/10/26 00:08:01;;;;;;;5.53;4.20;;;13.60;99.90;;;;;;10397245;28;20799;-65
2023/10/26 00:13:02;;;;;;;5.90;4.40;;;13.60;99.90;;;;;;10409190;28;20414;-67
2023/10/26 00:18:02;;;;;;;5.82;4.40;;;13.60;99.90;;;;;;10423593;28;20911;-66
2023/10/26 00:23:05;;;;;;;6.37;4.20;;;13.70;99.90;;;;;;10396929;28;20418;-67
2023/10/26 00:28:06;;;;;;;5.20;4.00;;;13.60;99.90;;;;;;10418511;28;20411;-66
2023/10/26 00:33:07;;;;;;;5.45;4.25;;;13.60;99.90;;;;;;10407344;28;20416;-67
2023/10/26 00:38:08;;;;;;;5.77;4.27;;;13.60;99.90;;;;;;10416217;28;21103;-67
2023/10/26 00:43:22;;;;;;;5.45;4.30;;;13.60;99.90;;;;;;10400039;28;20409;-67
2023/10/26 00:48:23;;;;;;;6.07;4.30;;;13.60;99.90;;;;;;10401791;28;20499;-67
2023/10/26 00:53:24;;;;;;;6.00;4.53;;;13.60;99.90;;;;;;10401571;28;20404;-67
2023/10/26 00:58:26;;;;;;;5.23;4.07;;;13.60;99.90;;;;;;10404793;28;20406;-66
2023/10/26 01:03:30;;;;;;;6.30;4.50;;;13.60;99.90;;;;;;10400354;28;20771;-66
2023/10/26 01:08:31;;;;;;;5.72;4.53;;;13.60;99.90;;;;;;10407707;28;20838;-65
2023/10/26 01:13:33;;;;;;;5.97;4.60;;;13.60;99.90;;;;;;10403116;28;20486;-66
2023/10/26 01:18:33;;;;;;;5.25;4.18;;;13.60;99.90;;;;;;10404907;28;20403;-66
2023/10/26 01:23:34;;;;;;;6.53;4.70;;;13.60;99.90;;;;;;10406356;28;20779;-67
2023/10/26 01:28:35;;;;;;;6.83;4.50;;;13.50;99.90;;;;;;10406784;28;20407;-66
2023/10/26 01:33:35;;;;;;;6.60;4.80;;;13.60;99.90;;;;;;10399098;28;20474;-67
2023/10/26 01:38:36;;;;;;;7.60;5.00;;;13.60;99.90;;;;;;10406553;28;20818;-66
2023/10/26 01:43:37;;;;;;;6.68;4.60;;;13.50;99.90;;;;;;10405873;28;20406;-66
2023/10/26 01:48:38;;;;;;;6.77;5.17;;;13.50;99.90;;;;;;10396820;28;20750;-66
2023/10/26 01:53:40;;;;;;;6.27;4.97;;;13.60;99.90;;;;;;10397693;28;20523;-66
2023/10/26 01:58:40;;;;;;;6.47;5.00;;;13.60;99.90;;;;;;10400097;28;20397;-66
2023/10/26 02:03:41;;;;;;;7.33;4.67;;;13.60;99.90;;;;;;10404859;28;21570;-66
2023/10/26 02:08:42;;;;;;;6.60;4.53;;;13.50;99.90;;;;;;10404705;28;20601;-67
2023/10/26 02:13:42;;;;;;;7.22;5.00;;;13.50;99.90;;;;;;10402277;28;21030;-64
2023/10/26 02:18:44;;;;;;;7.27;4.90;;;13.50;99.90;;;;;;10397392;28;20418;-66
2023/10/26 02:23:45;;;;;;;7.63;5.00;;;13.50;99.90;;;;;;10418463;28;20419;-65
2023/10/26 02:28:45;;;;;;;7.63;5.20;;;13.60;99.90;;;;;;10403116;28;20406;-65
2023/10/26 02:33:46;;;;;;;6.15;4.75;;;13.50;99.90;;;;;;10392399;28;20468;-66
2023/10/26 02:38:46;;;;;;;7.57;5.33;;;13.50;99.90;;;;;;10398771;28;20420;-66
2023/10/26 02:43:47;;;;;;;7.53;5.10;;;13.50;99.90;;;;;;10399191;28;20902;-64
2023/10/26 02:48:48;;;;;;;6.90;5.00;;;13.50;99.90;;;;;;10406231;28;20985;-66
2023/10/26 02:53:48;;;;;;;6.83;5.17;;;14.20;99.90;;;;;;10403912;28;20446;-65
2023/10/26 02:58:49;;;;;;;7.70;4.97;;;13.50;99.90;;;;;;10404435;28;20729;-65
2023/10/26 03:03:49;;;;;;;7.70;5.57;;;13.50;99.90;;;;;;10409243;28;20399;-66
2023/10/26 03:08:50;;;;;;;7.50;5.30;;;15.10;99.90;;;;;;10399474;28;20422;-66
2023/10/26 03:13:50;;;;;;;7.33;5.40;;;13.60;99.90;;;;;;10412170;28;20415;-65
2023/10/26 03:18:51;;;;;;;7.10;5.37;;;13.50;99.90;;;;;;10416670;28;20410;-66
2023/10/26 03:23:55;;;;;;;7.72;5.13;;;13.50;99.90;;;;;;10417847;28;20404;-66
2023/10/26 03:28:55;;;;;;;7.95;5.18;;;13.50;99.90;;;;;;10412437;28;20405;-65
2023/10/26 03:33:56;;;;;;;6.83;5.30;;;13.50;99.90;;;;;;10402697;28;20419;-66
2023/10/26 03:38:56;;;;;;;7.77;5.70;;;13.50;99.90;;;;;;10410275;28;20425;-66
2023/10/26 03:43:57;;;;;;;8.27;5.60;;;13.50;99.90;;;;;;10406654;28;20922;-66
2023/10/26 03:48:57;;;;;;;7.27;5.63;;;13.50;99.90;;;;;;10418160;28;20506;-66
2023/10/26 03:53:58;;;;;;;6.97;5.50;;;13.50;99.90;;;;;;10408508;28;20934;-65
2023/10/26 03:58:58;;;;;;;7.57;5.53;;;13.80;99.90;;;;;;10407710;28;20449;-66
2023/10/26 04:03:59;;;;;;;7.20;5.40;;;13.40;99.90;;;;;;10414907;28;20410;-66
2023/10/26 04:09:00;;;;;;;7.53;5.47;;;13.40;99.90;;;;;;10404949;28;20506;-66
2023/10/26 04:14:00;;;;;;;7.55;5.38;;;13.50;99.90;;;;;;10410129;28;20416;-65
2023/10/26 04:19:01;;;;;;;8.63;5.50;;;13.70;99.90;;;;;;10411004;28;20721;-65
2023/10/26 04:24:03;;;;;;;7.80;5.43;;;13.40;99.90;;;;;;10416849;28;20399;-64
2023/10/26 04:29:05;;;;;;;7.93;5.47;;;13.40;99.90;;;;;;10413228;28;20401;-65
2023/10/26 04:34:05;;;;;;;8.37;5.87;;;13.40;99.90;;;;;;10408198;28;20411;-66
2023/10/26 04:39:09;;;;;;;7.68;5.40;;;13.40;99.90;;;;;;10411087;28;20407;-66
2023/10/26 04:44:11;;;;;;;8.80;5.70;;;13.90;99.90;;;;;;10412713;28;20430;-65
2023/10/26 04:49:12;;;;;;;7.60;5.77;;;13.40;99.90;;;;;;10413955;28;20415;-65
2023/10/26 04:54:12;;;;;;;7.00;5.60;;;13.40;99.90;;;;;;10414932;28;20438;-66
2023/10/26 04:59:13;;;;;;;6.90;5.63;;;13.30;99.90;;;;;;10409402;28;20398;-66
2023/10/26 05:04:13;;;;;;;8.70;6.20;;;13.30;99.90;;;;;;10416247;28;20408;-66
2023/10/26 05:09:14;;;;;;;8.67;5.80;;;13.30;99.90;;;;;;10394678;28;20774;-66
2023/10/26 05:14:15;;;;;;;8.85;6.00;;;13.30;99.90;;;;;;10408103;28;20409;-66
2023/10/26 05:19:15;;;;;;;9.33;6.30;;;13.30;99.90;;;;;;10419649;28;20418;-65
2023/10/26 05:24:16;;;;;;;9.57;6.27;;;13.30;99.90;;;;;;10408269;28;20415;-65
2023/10/26 05:29:16;;;;;;;9.05;6.20;;;13.30;99.90;;;;;;10412509;28;20383;-66
2023/10/26 05:34:17;;;;;;;9.03;6.30;;;13.30;99.90;;;;;;10414828;28;20498;-65
2023/10/26 05:39:17;;;;;;;9.93;6.83;;;13.30;99.90;;;;;;10412116;28;20898;-66
2023/10/26 05:44:18;;;;;;;9.23;7.03;;;13.30;99.90;;;;;;10403141;28;20429;-66
2023/10/26 05:49:19;;;;;;;8.73;6.50;;;13.30;99.90;;;;;;10394569;28;20791;-64
2023/10/26 05:54:20;;;;;;;8.17;6.43;;;13.30;99.90;;;;;;10408024;28;20410;-66
2023/10/26 05:59:21;;;;;;;9.63;6.90;;;13.30;99.90;;;;;;10396727;28;20902;-65
2023/10/26 06:04:21;;;;;;;9.07;6.80;;;13.30;99.90;;;;;;10383661;28;20854;-65
2023/10/26 06:09:22;;;;;;;9.65;6.78;;;13.30;99.90;;;;;;10401562;28;20415;-65
2023/10/26 06:14:23;;;;;;;8.38;6.43;;;13.30;99.90;;;;;;10401690;28;20865;-66
2023/10/26 06:19:23;;;;;;;9.00;6.70;;;13.60;99.90;;;;;;10389485;28;20417;-66
2023/10/26 06:24:24;;;;;;;8.67;6.70;;;13.30;99.90;;;;;;10391921;28;20969;-65
2023/10/26 06:29:26;;;;;;;8.25;6.50;;;13.30;99.90;;;;;;10398541;28;20404;-65
2023/10/26 06:34:27;;;;;;;9.07;6.40;;;13.30;99.90;;;;;;10402592;28;20413;-66
2023/10/26 06:39:28;;;;;;;8.10;6.17;;;13.30;99.90;;;;;;10409570;28;20726;-64
2023/10/26 06:44:28;;;;;;;9.32;6.82;;;13.50;99.90;;;;;;10399407;28;20987;-65
2023/10/26 06:49:29;;;;;;;7.77;6.23;;;13.30;99.90;;;;;;10415796;28;20764;-66
2023/10/26 06:54:29;;;;;;;15.47;8.67;;;13.20;99.90;;;;;;10407387;28;20406;-72
2023/10/26 06:59:30;;;;;;;11.63;8.68;;;13.20;99.80;;;;;;10409852;28;20403;-66
2023/10/26 07:04:31;;;;;;;11.37;8.17;;;13.00;99.90;;;;;;10411234;28;20411;-65
2023/10/26 07:09:31;;;;;;;11.47;8.13;;;13.00;99.90;;;;;;10397760;28;20411;-65
2023/10/26 07:14:32;;;;;;;11.13;8.55;;;13.00;99.90;;;;;;10413372;28;20508;-65
2023/10/26 07:19:32;;;;;;;10.50;8.10;;;13.10;99.90;;;;;;10399724;28;20401;-65
2023/10/26 07:24:33;;;;;;;10.40;7.70;;;13.10;99.90;;;;;;10403740;28;20409;-66
2023/10/26 07:29:34;;;;;;;9.73;7.65;;;13.10;99.90;;;;;;10408333;28;20451;-65
2023/10/26 07:34:34;;;;;;;9.67;7.27;;;13.10;99.90;;;;;;10405328;28;20506;-65
2023/10/26 07:39:35;;;;;;;9.57;7.38;;;13.20;99.90;;;;;;10415877;28;20403;-65
2023/10/26 07:44:38;;;;;;;10.77;7.70;;;13.20;99.90;;;;;;10409608;28;20417;-65
2023/10/26 07:49:39;;;;;;;9.15;7.15;;;13.20;99.90;;;;;;10416104;28;20501;-66
2023/10/26 07:54:39;;;;;;;8.77;7.17;;;13.20;99.90;;;;;;10407323;28;20755;-65
2023/10/26 07:59:41;;;;;;;9.30;7.05;;;13.20;99.90;;;;;;10415512;28;20412;-65
2023/10/26 08:04:41;;;;;;;8.65;6.95;;;13.50;99.90;;;;;;10408610;28;20421;-66
2023/10/26 08:09:42;;;;;;;8.83;7.07;;;13.20;99.90;;;;;;10428151;28;20421;-65
2023/10/26 08:14:42;;;;;;;9.63;6.87;;;13.20;99.90;;;;;;10413468;28;20415;-65
2023/10/26 08:19:43;;;;;;;8.80;6.97;;;13.30;99.90;;;;;;10412222;28;20454;-66
2023/10/26 08:24:44;;;;;;;8.10;6.90;;;13.20;99.90;;;;;;10402174;28;20403;-65
2023/10/26 08:29:44;;;;;;;8.90;7.17;;;13.30;99.90;;;;;;10412380;28;20409;-66
2023/10/26 08:34:46;;;;;;;8.63;7.10;;;13.30;99.90;;;;;;10415183;28;21057;-65
2023/10/26 08:39:46;;;;;;;8.93;7.00;;;13.30;99.90;;;;;;10409578;28;20940;-64
2023/10/26 08:44:47;;;;;;;9.53;7.20;;;13.30;99.90;;;;;;10431201;28;20854;-65
2023/10/26 08:49:52;;;;;;;9.55;7.57;;;13.30;99.90;;;;;;10414525;28;20831;-65
2023/10/26 08:54:52;;;;;;;9.45;7.10;;;13.30;99.80;;;;;;10413113;28;20413;-65
2023/10/26 08:59:53;;;;;;;9.20;6.93;;;13.40;99.80;;;;;;10408548;28;20402;-66
2023/10/26 09:05:08;;;;;;;9.10;7.03;;;13.40;99.80;;;;;;10405683;28;20502;-65
2023/10/26 09:10:09;;;;;;;9.13;7.22;;;13.40;99.70;;;;;;10429730;28;20414;-64
2023/10/26 09:15:11;;;;;;;9.73;7.50;;;13.50;99.70;;;;;;10417422;28;20698;-65
2023/10/26 09:20:17;;;;;;;10.13;7.20;;;13.50;99.70;;;;;;10410887;28;20401;-68
2023/10/26 09:25:18;;;;;;;9.75;7.53;;;13.50;99.70;;;;;;10407905;28;20481;-66
2023/10/26 09:30:28;;;;;;;11.35;8.48;;;13.50;99.70;;;;;;10417761;28;20505;-65
2023/10/26 09:35:30;;;;;;;10.82;7.93;;;13.50;99.90;;;;;;10401115;28;20591;-64
2023/10/26 09:40:30;;;;;;;10.70;7.45;;;13.50;99.90;;;;;;10410140;28;20433;-64
2023/10/26 09:45:32;;;;;;;12.40;8.90;;;13.50;99.90;;;;;;10414986;28;20410;-65
2023/10/26 09:50:39;;;;;;;11.93;8.43;;;13.60;99.90;;;;;;10400176;28;20411;-65
2023/10/26 09:55:43;;;;;;;10.15;7.70;;;13.70;99.90;;;;;;10404603;28;20912;-65
2023/10/26 10:00:44;;;;;;;11.13;7.95;;;13.70;99.80;;;;;;10400525;28;20406;-65
2023/10/26 10:05:47;;;;;;;9.97;7.67;;;13.70;99.80;;;;;;10405047;28;20413;-65
2023/10/26 10:11:17;;;;;;;10.43;7.45;;;13.80;99.80;;;;;;10389195;28;20898;-65
2023/10/26 10:16:36;;;;;;;11.20;8.20;;;13.80;99.80;;;;;;10400544;28;20778;-65
2023/10/26 10:21:36;;;;;;;10.63;7.72;;;14.00;99.90;;;;;;10399412;28;20891;-64
2023/10/26 10:27:06;;;;;;;10.20;7.25;;;13.90;99.70;;;;;;10396791;28;20485;-64
2023/10/26 10:32:07;;;;;;;10.30;7.70;;;13.90;99.80;;;;;;10401240;28;20416;-66
2023/10/26 10:37:21;;;;;;;12.00;7.90;;;13.90;99.80;;;;;;10403745;28;20488;-65
2023/10/26 10:42:23;;;;;;;10.98;7.78;;;13.90;99.90;;;;;;10398590;28;20415;-65
2023/10/26 10:47:27;;;;;;;11.43;8.05;;;13.90;99.90;;;;;;10389304;28;20478;-64
2023/10/26 10:52:28;;;;;;;12.20;8.25;;;13.90;99.90;;;;;;10392504;28;20785;-65
2023/10/26 10:57:29;;;;;;;12.70;8.17;;;13.90;99.90;;;;;;10399062;28;20403;-65
2023/10/26 11:02:29;;;;;;;10.50;7.67;;;13.90;99.90;;;;;;10398580;28;20591;-64
2023/10/26 11:07:30;;;;;;;12.70;8.23;;;14.00;99.90;;;;;;10396538;28;20409;-65
2023/10/26 11:12:31;;;;;;;11.87;7.77;;;13.90;99.90;;;;;;10403608;28;20915;-64
2023/10/26 11:17:32;;;;;;;11.40;8.20;;;14.00;99.90;;;;;;10404487;28;20782;-65
2023/10/26 11:22:32;;;;;;;11.23;7.87;;;14.00;99.90;;;;;;10404343;28;20456;-65
2023/10/26 11:27:38;;;;;;;18.80;12.07;;;14.10;99.90;;;;;;10401831;28;20415;-68
2023/10/26 11:32:39;;;;;;;22.35;13.27;;;14.10;99.90;;;;;;10407733;28;20410;-68
2023/10/26 11:37:43;;;;;;;20.13;12.70;;;14.30;99.90;;;;;;10408833;28;20424;-69
2023/10/26 11:42:52;;;;;;;20.30;12.88;;;13.70;99.90;;;;;;10410724;28;20898;-67
2023/10/26 11:47:55;;;;;;;22.55;13.32;;;13.80;99.90;;;;;;10403396;28;20416;-70
2023/10/26 11:53:00;;;;;;;19.90;12.67;;;13.80;99.90;;;;;;10422713;28;20488;-67
2023/10/26 11:58:02;;;;;;;22.57;13.07;;;13.70;99.90;;;;;;10405531;28;20774;-69
2023/10/26 12:03:03;;;;;;;19.10;12.10;;;13.70;99.90;;;;;;10410534;28;20403;-69
2023/10/26 12:08:04;;;;;;;18.30;11.50;;;13.60;99.90;;;;;;10413583;28;20779;-69
2023/10/26 12:13:05;;;;;;;19.77;11.70;;;13.70;99.90;;;;;;10400083;28;20471;-69
2023/10/26 12:18:06;;;;;;;17.73;11.63;;;13.70;99.80;;;;;;10408260;28;20410;-68
2023/10/26 12:23:07;;;;;;;18.67;10.93;;;13.60;99.90;;;;;;10409492;28;20415;-71
2023/10/26 12:28:07;;;;;;;15.90;10.03;;;13.60;99.90;;;;;;10402655;28;20798;-69
2023/10/26 12:33:08;;;;;;;16.53;10.13;;;13.80;99.90;;;;;;10419714;28;20755;-69
2023/10/26 12:38:08;;;;;;;14.27;9.65;;;13.90;99.90;;;;;;10407445;28;20398;-69
2023/10/26 12:43:09;;;;;;;15.43;9.07;;;14.00;99.50;;;;;;10402673;28;20391;-70
2023/10/26 12:48:10;;;;;;;13.85;9.00;;;14.00;99.50;;;;;;10404191;28;20497;-69
2023/10/26 12:53:10;;;;;;;14.50;9.57;;;14.80;99.70;;;;;;10404229;28;20406;-69
2023/10/26 12:58:11;;;;;;;13.07;8.43;;;14.10;99.60;;;;;;10408173;28;20842;-69
2023/10/26 13:03:11;;;;;;;13.07;9.00;;;14.10;98.70;;;;;;10413081;28;20419;-69
2023/10/26 13:08:12;;;;;;;12.97;7.60;;;13.90;98.70;;;;;;10406728;28;20602;-71
2023/10/26 13:13:13;;;;;;;12.50;7.97;;;13.70;98.50;;;;;;10421811;28;20419;-69
2023/10/26 13:18:13;;;;;;;10.77;7.53;;;13.70;99.00;;;;;;10411263;28;20472;-70
2023/10/26 13:23:14;;;;;;;11.77;7.20;;;13.70;98.90;;;;;;10409555;28;20401;-68
2023/10/26 13:28:14;;;;;;;14.13;8.00;;;13.80;98.90;;;;;;10403130;28;20404;-68
2023/10/26 13:33:16;;;;;;;19.58;9.18;;;13.90;99.30;;;;;;10408112;28;20505;-68
2023/10/26 13:38:17;;;;;;;13.73;8.25;;;13.90;99.80;;;;;;10418013;28;20411;-68
2023/10/26 13:43:17;;;;;;;11.80;8.07;;;14.00;99.40;;;;;;10433753;28;20911;-68
2023/10/26 13:48:18;;;;;;;11.30;8.18;;;14.20;99.70;;;;;;10400675;28;20938;-68
2023/10/26 13:53:18;;;;;;;11.80;7.37;;;14.00;99.40;;;;;;10413193;28;21020;-68
2023/10/26 13:58:19;;;;;;;10.30;6.70;;;14.00;98.10;;;;;;10411931;28;20845;-68
2023/10/26 14:03:19;;;;;;;9.80;6.90;;;14.10;97.80;;;;;;10408656;28;20806;-67
2023/10/26 14:08:20;;;;;;;9.57;6.73;;;14.10;97.80;;;;;;10410852;28;20821;-67
2023/10/26 14:13:21;;;;;;;11.33;6.93;;;14.10;97.80;;;;;;10404065;28;21245;-68
2023/10/26 14:18:21;;;;;;;10.57;7.30;;;14.20;97.50;;;;;;10410095;28;20416;-67
2023/10/26 14:23:22;;;;;;;9.38;6.35;;;14.30;97.80;;;;;;10409457;28;20399;-68
2023/10/26 14:28:22;;;;;;;13.67;8.50;;;14.30;98.10;;;;;;10410461;28;20403;-69
2023/10/26 14:33:23;;;;;;;12.50;8.03;;;14.20;98.20;;;;;;10410283;28;20402;-66
2023/10/26 14:38:24;;;;;;;12.82;7.80;;;14.00;98.40;;;;;;10407339;28;20426;-63
2023/10/26 14:43:25;;;;;;;11.43;7.27;;;14.10;98.70;;;;;;10406802;28;20845;-64
2023/10/26 14:48:26;;;;;;;12.25;7.07;;;14.10;98.60;;;;;;10411582;28;20504;-64
2023/10/26 14:53:27;;;;;;;9.07;6.53;;;14.20;98.70;;;;;;10410967;28;20787;-63
2023/10/26 14:58:28;;;;;;;9.07;6.87;;;14.30;98.70;;;;;;10407577;28;20395;-64
2023/10/26 15:03:28;;;;;;;9.98;6.47;;;14.30;98.60;;;;;;10406094;28;20406;-64
2023/10/26 15:08:29;;;;;;;9.77;6.90;;;14.30;98.60;;;;;;10425754;28;20505;-64
2023/10/26 15:13:29;;;;;;;9.00;6.43;;;14.30;98.70;;;;;;10405877;28;20504;-64
2023/10/26 15:18:30;;;;;;;9.30;6.23;;;14.40;98.70;;;;;;10422707;28;20403;-65
2023/10/26 15:23:31;;;;;;;9.37;6.53;;;14.40;98.70;;;;;;10414513;28;20449;-64
2023/10/26 15:28:32;;;;;;;11.02;6.80;;;14.40;98.70;;;;;;10433520;28;20402;-64
2023/10/26 15:33:33;;;;;;;10.27;6.53;;;14.50;98.80;;;;;;10415870;28;20502;-66
2023/10/26 15:38:36;;;;;;;9.17;6.43;;;14.40;98.90;;;;;;10415274;28;20790;-66
2023/10/26 15:43:36;;;;;;;8.93;6.72;;;14.60;98.80;;;;;;10421285;28;20407;-66
2023/10/26 15:48:37;;;;;;;10.17;7.17;;;14.40;98.70;;;;;;10405826;28;20420;-66
2023/10/26 15:53:37;;;;;;;10.67;7.17;;;14.40;98.70;;;;;;10410725;28;20426;-66
2023/10/26 15:58:38;;;;;;;10.23;6.93;;;14.50;98.80;;;;;;10401918;28;20398;-65
2023/10/26 16:03:39;;;;;;;9.60;7.53;;;14.40;98.80;;;;;;10405902;28;20414;-65
2023/10/26 16:08:40;;;;;;;9.57;7.40;;;14.70;98.90;;;;;;10403138;28;20390;-66
2023/10/26 16:13:45;;;;;;;11.50;8.20;;;14.50;98.90;;;;;;10410370;28;20444;-65
2023/10/26 16:18:46;;;;;;;11.18;8.23;;;14.30;99.00;;;;;;10398433;28;20405;-66
2023/10/26 16:23:46;;;;;;;10.90;8.07;;;14.30;99.30;;;;;;10406228;28;20424;-66
2023/10/26 16:28:47;;;;;;;10.77;8.30;;;14.30;99.10;;;;;;10397981;28;20991;-64
2023/10/26 16:33:48;;;;;;;10.23;7.53;;;14.30;99.20;;;;;;10399848;28;20792;-64
2023/10/26 16:38:48;;;;;;;10.15;7.63;;;14.30;99.30;;;;;;10407043;28;20749;-64
2023/10/26 16:43:49;;;;;;;8.97;7.50;;;14.30;99.40;;;;;;10408239;28;20464;-64
2023/10/26 16:48:50;;;;;;;9.47;7.23;;;14.30;99.50;;;;;;10396385;28;20924;-65
2023/10/26 16:53:50;;;;;;;10.18;7.25;;;14.30;99.50;;;;;;10405493;28;20421;-64
2023/10/26 16:58:51;;;;;;;9.50;7.00;;;14.30;99.50;;;;;;10405905;28;20582;-65
2023/10/26 17:03:51;;;;;;;9.90;7.50;;;14.30;99.50;;;;;;10403602;28;20402;-64
2023/10/26 17:08:52;;;;;;;8.65;6.82;;;14.80;99.60;;;;;;10410544;28;20409;-64
2023/10/26 17:13:53;;;;;;;8.77;6.77;;;14.30;99.50;;;;;;10401197;28;20421;-65
2023/10/26 17:18:56;;;;;;;9.33;6.60;;;14.30;99.50;;;;;;10405994;28;20477;-65
2023/10/26 17:23:57;;;;;;;9.40;6.93;;;14.30;99.60;;;;;;10405138;28;20410;-65
2023/10/26 17:28:58;;;;;;;10.60;7.80;;;14.30;99.60;;;;;;10399840;28;20412;-65
2023/10/26 17:33:58;;;;;;;12.13;8.70;;;14.30;99.50;;;;;;10399414;28;20426;-64
2023/10/26 17:38:59;;;;;;;10.63;7.50;;;14.30;99.20;;;;;;10398031;28;20403;-65
2023/10/26 17:43:59;;;;;;;10.57;7.97;;;14.30;99.30;;;;;;10401702;28;20407;-65
2023/10/26 17:49:00;;;;;;;9.88;7.80;;;14.20;99.40;;;;;;10410265;28;20423;-64
2023/10/26 17:54:01;;;;;;;9.93;7.70;;;14.20;99.40;;;;;;10402950;28;20433;-64
2023/10/26 17:59:01;;;;;;;10.65;7.72;;;14.20;99.40;;;;;;10392545;28;20491;-67
2023/10/26 18:04:02;;;;;;;9.43;6.17;;;14.20;99.50;;;;;;10394954;28;20482;-64
2023/10/26 18:09:03;;;;;;;8.70;6.47;;;14.20;99.90;;;;;;10393841;28;20413;-65
2023/10/26 18:14:04;;;;;;;10.52;7.40;;;14.50;99.90;;;;;;10397903;28;20562;-66
2023/10/26 18:19:05;;;;;;;10.07;7.37;;;14.50;99.60;;;;;;10397961;28;20926;-65
2023/10/26 18:24:06;;;;;;;9.00;7.07;;;14.40;99.60;;;;;;10402777;28;20403;-65
2023/10/26 18:29:07;;;;;;;9.20;7.27;;;14.40;99.80;;;;;;10398055;28;20791;-66
2023/10/26 18:34:08;;;;;;;10.63;7.63;;;14.30;99.80;;;;;;10399695;28;20414;-65
2023/10/26 18:39:09;;;;;;;10.35;7.57;;;14.30;99.90;;;;;;10396478;28;20421;-65
2023/10/26 18:44:09;;;;;;;10.33;7.47;;;14.30;99.80;;;;;;10402716;28;20409;-64
2023/10/26 18:49:10;;;;;;;11.80;8.02;;;14.20;99.80;;;;;;10395389;28;20814;-65
2023/10/26 18:54:11;;;;;;;10.07;7.67;;;14.20;99.80;;;;;;10407518;28;20431;-64
2023/10/26 18:59:11;;;;;;;11.43;8.60;;;14.20;99.70;;;;;;10403524;28;20937;-65
2023/10/26 19:04:13;;;;;;;10.90;8.40;;;14.10;99.60;;;;;;10401949;28;20429;-65
2023/10/26 19:09:13;;;;;;;12.50;8.48;;;14.10;99.60;;;;;;10400879;28;20962;-65
2023/10/26 19:14:14;;;;;;;10.83;7.80;;;14.80;99.70;;;;;;10396962;28;20421;-64
2023/10/26 19:19:14;;;;;;;11.30;8.37;;;14.10;99.50;;;;;;10411109;28;20481;-65
2023/10/26 19:24:15;;;;;;;10.18;8.00;;;14.00;99.40;;;;;;10405980;28;20414;-66
2023/10/26 19:29:16;;;;;;;12.10;8.80;;;14.00;99.40;;;;;;10390254;28;20456;-65
2023/10/26 19:34:17;;;;;;;11.65;8.55;;;14.00;99.40;;;;;;10401327;28;20476;-65
2023/10/26 19:39:17;;;;;;;11.13;8.70;;;14.00;99.40;;;;;;10402628;28;20936;-65
2023/10/26 19:44:18;;;;;;;12.03;9.07;;;14.00;99.40;;;;;;10395427;28;20408;-65
2023/10/26 19:49:18;;;;;;;13.05;9.07;;;14.00;99.40;;;;;;10403214;28;20774;-65
2023/10/26 19:54:20;;;;;;;11.97;9.07;;;13.90;99.30;;;;;;10406907;28;20498;-65
2023/10/26 19:59:21;;;;;;;11.60;8.60;;;14.00;99.40;;;;;;10401438;28;20411;-64
2023/10/26 20:04:22;;;;;;;12.80;9.33;;;14.00;99.30;;;;;;10404363;28;20406;-65
2023/10/26 20:09:23;;;;;;;11.93;8.80;;;13.90;99.30;;;;;;10398671;28;20418;-65
2023/10/26 20:14:24;;;;;;;12.23;9.10;;;13.90;99.30;;;;;;10398393;28;20414;-65
2023/10/26 20:19:25;;;;;;;13.13;9.23;;;13.90;99.30;;;;;;10409877;28;20778;-65
2023/10/26 20:24:25;;;;;;;12.18;9.07;;;13.90;99.30;;;;;;10401871;28;20403;-65
2023/10/26 20:29:26;;;;;;;14.27;9.33;;;13.90;99.30;;;;;;10402541;28;20409;-65
2023/10/26 20:34:27;;;;;;;11.90;9.02;;;13.90;99.30;;;;;;10409584;28;20408;-65
2023/10/26 20:39:27;;;;;;;13.13;9.00;;;13.90;99.30;;;;;;10402180;28;20422;-65
2023/10/26 20:44:28;;;;;;;11.37;8.60;;;13.90;99.30;;;;;;10407501;28;20968;-64
2023/10/26 20:49:29;;;;;;;12.45;8.77;;;13.80;99.30;;;;;;10405473;28;20415;-65
2023/10/26 20:54:29;;;;;;;12.50;8.87;;;13.80;99.30;;;;;;10396323;28;20522;-65
2023/10/26 20:59:30;;;;;;;13.37;9.37;;;13.80;99.30;;;;;;10403815;28;20422;-64
2023/10/26 21:04:30;;;;;;;14.00;9.23;;;13.80;99.40;;;;;;10403551;28;20921;-65
2023/10/26 21:09:32;;;;;;;12.90;9.13;;;13.80;99.30;;;;;;10401423;28;20772;-64
2023/10/26 21:14:32;;;;;;;12.55;9.25;;;13.80;99.30;;;;;;10399423;28;20411;-65
2023/10/26 21:19:33;;;;;;;11.83;8.87;;;13.80;99.30;;;;;;10406239;28;20421;-65
2023/10/26 21:24:33;;;;;;;13.23;9.50;;;13.80;99.30;;;;;;10404747;28;20413;-64
2023/10/26 21:29:34;;;;;;;13.48;9.48;;;13.80;99.30;;;;;;10397543;28;20690;-64
2023/10/26 21:34:34;;;;;;;12.90;8.97;;;13.80;99.30;;;;;;10397591;28;20505;-64
2023/10/26 21:39:35;;;;;;;13.20;9.60;;;13.80;99.30;;;;;;10405878;28;20430;-64
2023/10/26 21:44:36;;;;;;;13.60;9.75;;;13.80;99.30;;;;;;10399076;28;20895;-64
2023/10/26 21:49:36;;;;;;;13.07;9.50;;;13.80;99.30;;;;;;10392320;28;20666;-64
2023/10/26 21:54:37;;;;;;;13.43;9.33;;;13.80;99.30;;;;;;10401253;28;20417;-64
2023/10/26 21:59:37;;;;;;;13.13;9.47;;;13.80;99.30;;;;;;10403038;28;20411;-64
2023/10/26 22:04:38;;;;;;;13.73;9.75;;;13.80;99.30;;;;;;10400715;28;20418;-64
2023/10/26 22:09:38;;;;;;;14.70;9.80;;;13.70;99.30;;;;;;10394161;28;20484;-64
2023/10/26 22:14:39;;;;;;;13.37;9.73;;;14.20;99.40;;;;;;10398690;28;20421;-64
2023/10/26 22:19:39;;;;;;;13.45;9.25;;;14.30;99.70;;;;;;10402987;28;20398;-65
2023/10/26 22:24:40;;;;;;;13.03;9.43;;;14.30;99.40;;;;;;10399606;28;20451;-64
2023/10/26 22:29:41;;;;;;;13.50;9.80;;;13.70;99.30;;;;;;10406958;28;20407;-64
2023/10/26 22:34:41;;;;;;;13.85;9.65;;;13.70;99.30;;;;;;10404226;28;20413;-65
2023/10/26 22:39:42;;;;;;;12.80;9.17;;;13.70;99.30;;;;;;10400788;28;20415;-64
2023/10/26 22:44:42;;;;;;;15.07;10.20;;;13.70;99.30;;;;;;10406852;28;20416;-64
2023/10/26 22:49:43;;;;;;;14.93;9.50;;;13.70;99.30;;;;;;10399907;28;20425;-64
2023/10/26 22:54:44;;;;;;;14.23;9.40;;;13.70;99.30;;;;;;10404739;28;20428;-64
2023/10/26 22:59:47;;;;;;;13.67;9.53;;;13.70;99.30;;;;;;10405243;28;20410;-64
2023/10/26 23:04:50;;;;;;;13.98;9.38;;;13.70;99.30;;;;;;10399102;28;20393;-64
2023/10/26 23:09:51;;;;;;;13.37;9.33;;;13.70;99.30;;;;;;10404324;28;20407;-64
2023/10/26 23:14:52;;;;;;;14.10;9.18;;;13.70;99.30;;;;;;10399646;28;20409;-65
2023/10/26 23:19:52;;;;;;;14.60;10.10;;;13.70;99.30;;;;;;10407069;28;20930;-64
2023/10/26 23:24:53;;;;;;;13.63;9.38;;;13.80;99.40;;;;;;10405789;28;20790;-64
2023/10/26 23:29:53;;;;;;;14.27;9.07;;;13.70;99.30;;;;;;10411992;28;20553;-65
2023/10/26 23:34:54;;;;;;;13.97;9.47;;;13.70;99.30;;;;;;10412079;28;20945;-64
2023/10/26 23:39:55;;;;;;;13.68;9.30;;;13.70;99.30;;;;;;10417817;28;20420;-64
2023/10/26 23:44:55;;;;;;;13.73;9.70;;;13.70;99.30;;;;;;10412151;28;20454;-64
2023/10/26 23:49:56;;;;;;;16.10;9.93;;;13.70;99.40;;;;;;10408472;28;20425;-64
2023/10/26 23:54:57;;;;;;;15.63;10.25;;;13.70;99.40;;;;;;10405778;28;20423;-64
2023/10/26 23:59:57;;;;;;;13.83;9.60;;;13.70;99.40;;;;;;10417400;28;20402;-65
